Terminal Aerodrome Forecast
Issued by NWS

Current Version | Previous Version | Text Only | Print | Product List | Glossary Off
Versions: 1 2 3 4 5 6 7 8 9 10 11 12 13 14 15 16 17 18 19 20 21 22 23

000
FTUS41 KPBZ 040904 AAB
TAFMGW
TAF AMD
KMGW 040904Z 0409/0506 00000KT P6SM BKN090
     FM041200 24005KT P6SM VCSH BKN050
     FM050200 VRB03KT 5SM -SHRA OVC020=

USA.gov is the U.S. government's official web portal to all federal, state and local government web resources and services.